Time,TemperatureF,DewpointF,PressureIn,WindDirection,WindDirectionDegrees,WindSpeedMPH,WindSpeedGustMPH,Humidity,HourlyPrecipIn,Conditions,Clouds,dailyrainin,SolarRadiationWatts/m^2,SoftwareType,DateUTC
2013-01-30 00:21:00,30.0,27.0,-100.00,ENE,57,0.0,0.0,89,0.00,,,0.36,0.000000,,2013-01-30 08:21:00,
2013-01-30 00:32:00,30.0,27.0,-100.00,ENE,57,0.0,0.0,89,0.00,,,0.36,0.000000,,2013-01-30 08:32:00,
2013-01-30 00:41:00,30.0,27.0,-100.00,ENE,57,0.0,0.0,89,0.00,,,0.36,0.000000,,2013-01-30 08:41:00,
2013-01-30 00:52:00,30.0,27.0,-100.00,ENE,57,0.0,0.0,89,0.00,,,0.36,0.000000,,2013-01-30 08:52:00,
2013-01-30 01:21:00,30.0,26.0,-100.00,West,266,0.0,4.0,84,0.00,,,0.36,0.000000,,2013-01-30 09:21:00,
2013-01-30 01:32:00,30.0,26.0,-100.00,West,266,0.0,4.0,84,0.00,,,0.36,0.000000,,2013-01-30 09:32:00,
2013-01-30 01:41:00,30.0,26.0,-100.00,West,266,0.0,4.0,84,0.00,,,0.36,0.000000,,2013-01-30 09:41:00,
2013-01-30 01:51:00,30.0,26.0,-100.00,West,266,0.0,4.0,84,0.00,,,0.36,0.000000,,2013-01-30 09:51:00,
2013-01-30 02:21:00,28.0,24.0,-100.00,SE,130,0.0,3.0,86,0.00,,,0.36,0.000000,,2013-01-30 10:21:00,
2013-01-30 02:31:00,28.0,24.0,-100.00,SE,130,0.0,3.0,86,0.00,,,0.36,0.000000,,2013-01-30 10:31:00,
2013-01-30 02:41:00,28.0,24.0,-100.00,SE,130,0.0,3.0,86,0.00,,,0.36,0.000000,,2013-01-30 10:41:00,
2013-01-30 02:52:00,28.0,24.0,-100.00,SE,130,0.0,3.0,86,0.00,,,0.36,0.000000,,2013-01-30 10:52:00,
2013-01-30 03:22:00,29.0,26.0,-100.00,West,268,0.0,4.0,88,0.00,,,-99.99,0.000000,,2013-01-30 11:22:00,
2013-01-30 03:32:00,29.0,26.0,-100.00,West,268,0.0,4.0,88,0.00,,,-99.99,0.000000,,2013-01-30 11:32:00,
2013-01-30 03:42:00,29.0,26.0,-100.00,West,268,0.0,4.0,88,0.00,,,-99.99,0.000000,,2013-01-30 11:42:00,
2013-01-30 03:52:00,29.0,26.0,-100.00,West,268,0.0,4.0,88,0.00,,,-99.99,0.000000,,2013-01-30 11:52:00,
2013-01-30 04:22:00,29.0,26.0,-100.00,West,261,0.0,0.0,90,0.00,,,0.36,0.000000,,2013-01-30 12:22:00,
2013-01-30 04:32:00,29.0,26.0,-100.00,West,261,0.0,0.0,90,0.00,,,0.36,0.000000,,2013-01-30 12:32:00,
2013-01-30 04:42:00,29.0,26.0,-100.00,West,261,0.0,0.0,90,0.00,,,0.36,0.000000,,2013-01-30 12:42:00,
2013-01-30 05:22:00,28.0,25.0,-100.00,SE,136,0.0,0.0,89,0.00,,,0.36,0.000000,,2013-01-30 13:22:00,
2013-01-30 05:32:00,28.0,25.0,-100.00,SE,136,0.0,0.0,89,0.00,,,0.36,0.000000,,2013-01-30 13:32:00,
2013-01-30 05:42:00,28.0,25.0,-100.00,SE,136,0.0,0.0,89,0.00,,,0.36,0.000000,,2013-01-30 13:42:00,
2013-01-30 05:52:00,28.0,25.0,-100.00,SE,136,0.0,0.0,89,0.00,,,0.36,0.000000,,2013-01-30 13:52:00,
2013-01-30 06:22:00,29.0,26.0,-100.00,North,10,0.0,0.0,90,0.00,,,0.36,0.000000,,2013-01-30 14:22:00,
2013-01-30 06:32:00,29.0,26.0,-100.00,North,10,0.0,0.0,90,0.00,,,0.36,0.000000,,2013-01-30 14:32:00,
2013-01-30 06:42:00,29.0,26.0,-100.00,North,10,0.0,0.0,90,0.00,,,0.36,0.000000,,2013-01-30 14:42:00,
2013-01-30 06:52:00,29.0,26.0,-100.00,North,10,0.0,0.0,90,0.00,,,0.36,0.000000,,2013-01-30 14:52:00,
2013-01-30 07:23:00,32.0,29.0,-100.00,South,176,0.0,8.0,88,0.00,,,0.36,0.000000,,2013-01-30 15:23:00,
2013-01-30 07:33:00,32.0,29.0,-100.00,South,176,0.0,8.0,88,0.00,,,0.36,0.000000,,2013-01-30 15:33:00,
2013-01-30 07:43:00,32.0,29.0,-100.00,South,176,0.0,8.0,88,0.00,,,0.36,0.000000,,2013-01-30 15:43:00,
2013-01-30 07:52:00,32.0,29.0,-100.00,South,176,0.0,8.0,88,0.00,,,0.36,0.000000,,2013-01-30 15:52:00,
2013-01-30 08:22:00,33.0,29.0,-100.00,SSW,198,0.0,7.0,85,0.00,,,0.36,2.000000,,2013-01-30 16:22:00,
2013-01-30 08:32:00,33.0,29.0,-100.00,SSW,198,0.0,7.0,85,0.00,,,0.36,2.000000,,2013-01-30 16:32:00,
2013-01-30 08:42:00,33.0,29.0,-100.00,SSW,198,0.0,7.0,85,0.00,,,0.36,2.000000,,2013-01-30 16:42:00,
2013-01-30 08:51:00,33.0,29.0,-100.00,SSW,198,0.0,7.0,85,0.00,,,0.36,2.000000,,2013-01-30 16:51:00,
2013-01-30 09:22:00,35.0,29.0,-100.00,WSW,250,1.0,9.0,77,0.00,,,0.36,32.000000,,2013-01-30 17:22:00,
2013-01-30 09:32:00,35.0,29.0,-100.00,WSW,250,1.0,9.0,77,0.00,,,0.36,32.000000,,2013-01-30 17:32:00,
2013-01-30 09:42:00,35.0,29.0,-100.00,WSW,250,1.0,9.0,77,0.00,,,0.36,32.000000,,2013-01-30 17:42:00,
2013-01-30 09:52:00,35.0,29.0,-100.00,WSW,250,1.0,9.0,77,0.00,,,0.36,32.000000,,2013-01-30 17:52:00,
2013-01-30 10:22:00,38.0,29.0,-100.00,NW,317,0.0,10.0,71,0.00,,,-99.99,77.000000,,2013-01-30 18:22:00,
2013-01-30 10:33:00,38.0,29.0,-100.00,NW,317,0.0,10.0,71,0.00,,,-99.99,77.000000,,2013-01-30 18:33:00,
2013-01-30 10:42:00,38.0,29.0,-100.00,NW,317,0.0,10.0,71,0.00,,,-99.99,77.000000,,2013-01-30 18:42:00,
2013-01-30 10:51:00,38.0,29.0,-100.00,NW,317,0.0,10.0,71,0.00,,,-99.99,77.000000,,2013-01-30 18:51:00,
2013-01-30 11:22:00,41.0,31.0,-100.00,WNW,300,1.0,7.0,66,0.00,,,0.36,126.000000,,2013-01-30 19:22:00,
2013-01-30 11:32:00,41.0,31.0,-100.00,WNW,300,1.0,7.0,66,0.00,,,0.36,126.000000,,2013-01-30 19:32:00,
2013-01-30 11:42:00,41.0,31.0,-100.00,WNW,300,1.0,7.0,66,0.00,,,0.36,126.000000,,2013-01-30 19:42:00,
2013-01-30 11:52:00,41.0,31.0,-100.00,WNW,300,1.0,7.0,66,0.00,,,0.36,126.000000,,2013-01-30 19:52:00,
2013-01-30 12:22:00,44.0,30.0,-100.00,West,268,0.0,11.0,58,0.00,,,0.31,170.000000,,2013-01-30 20:22:00,
2013-01-30 12:33:00,44.0,30.0,-100.00,West,268,0.0,11.0,58,0.00,,,0.31,170.000000,,2013-01-30 20:33:00,
2013-01-30 13:22:00,43.0,29.0,-100.00,East,81,4.0,14.0,57,0.00,,,0.14,204.000000,,2013-01-30 21:22:00,
2013-01-30 13:32:00,43.0,29.0,-100.00,East,81,4.0,14.0,57,0.00,,,0.14,204.000000,,2013-01-30 21:32:00,
2013-01-30 14:22:00,41.0,29.0,-100.00,West,261,5.0,15.0,61,0.00,,,0.03,143.000000,,2013-01-30 22:22:00,
2013-01-30 14:32:00,41.0,29.0,-100.00,West,261,5.0,15.0,61,0.00,,,0.03,143.000000,,2013-01-30 22:32:00,
2013-01-30 14:41:00,41.0,29.0,-100.00,West,261,5.0,15.0,61,0.00,,,0.03,143.000000,,2013-01-30 22:41:00,
2013-01-30 14:52:00,41.0,29.0,-100.00,West,261,5.0,15.0,61,0.00,,,0.03,143.000000,,2013-01-30 22:52:00,
2013-01-30 15:22:00,42.0,28.0,-100.00,West,259,3.0,14.0,57,0.00,,,0.01,160.000000,,2013-01-30 23:22:00,
2013-01-30 15:32:00,42.0,28.0,-100.00,West,259,3.0,14.0,57,0.00,,,0.01,160.000000,,2013-01-30 23:32:00,
2013-01-30 15:42:00,42.0,28.0,-100.00,West,259,3.0,14.0,57,0.00,,,0.01,160.000000,,2013-01-30 23:42:00,
2013-01-30 15:52:00,42.0,28.0,-100.00,West,259,3.0,14.0,57,0.00,,,0.01,160.000000,,2013-01-30 23:52:00,
2013-01-30 16:21:00,39.0,28.0,-100.00,WNW,295,4.0,10.0,64,0.00,,,0.00,105.000000,,2013-01-31 00:21:00,
2013-01-30 16:32:00,39.0,28.0,-100.00,WNW,295,4.0,10.0,64,0.00,,,0.00,105.000000,,2013-01-31 00:32:00,
2013-01-30 16:42:00,39.0,28.0,-100.00,WNW,295,4.0,10.0,64,0.00,,,0.00,105.000000,,2013-01-31 00:42:00,
2013-01-30 16:52:00,39.0,28.0,-100.00,WNW,295,4.0,10.0,64,0.00,,,0.00,105.000000,,2013-01-31 00:52:00,
2013-01-30 17:21:00,36.0,29.0,-100.00,WNW,285,0.0,10.0,77,0.00,,,0.00,22.000000,,2013-01-31 01:21:00,
2013-01-30 17:31:00,36.0,29.0,-100.00,WNW,285,0.0,10.0,77,0.00,,,0.00,22.000000,,2013-01-31 01:31:00,
2013-01-30 17:41:00,36.0,29.0,-100.00,WNW,285,0.0,10.0,77,0.00,,,0.00,22.000000,,2013-01-31 01:41:00,
2013-01-30 17:52:00,36.0,29.0,-100.00,WNW,285,0.0,10.0,77,0.00,,,0.00,22.000000,,2013-01-31 01:52:00,
2013-01-30 18:21:00,32.0,28.0,-100.00,West,275,0.0,6.0,86,0.00,,,0.00,2.000000,,2013-01-31 02:21:00,
2013-01-30 18:32:00,32.0,28.0,-100.00,West,275,0.0,6.0,86,0.00,,,0.00,2.000000,,2013-01-31 02:32:00,
2013-01-30 18:41:00,32.0,28.0,-100.00,West,275,0.0,6.0,86,0.00,,,0.00,2.000000,,2013-01-31 02:41:00,
2013-01-30 18:52:00,32.0,28.0,-100.00,West,275,0.0,6.0,86,0.00,,,0.00,2.000000,,2013-01-31 02:52:00,
2013-01-30 19:21:00,29.0,27.0,-100.00,West,279,0.0,4.0,93,0.00,,,0.00,0.000000,,2013-01-31 03:21:00,
2013-01-30 19:32:00,29.0,27.0,-100.00,West,279,0.0,4.0,93,0.00,,,0.00,0.000000,,2013-01-31 03:32:00,
2013-01-30 19:41:00,29.0,27.0,-100.00,West,279,0.0,4.0,93,0.00,,,0.00,0.000000,,2013-01-31 03:41:00,
2013-01-30 19:51:00,29.0,27.0,-100.00,West,279,0.0,4.0,93,0.00,,,0.00,0.000000,,2013-01-31 03:51:00,
2013-01-30 20:22:00,30.0,28.0,-100.00,West,275,0.0,4.0,94,0.00,,,0.00,0.000000,,2013-01-31 04:22:00,
2013-01-30 20:31:00,30.0,28.0,-100.00,West,275,0.0,4.0,94,0.00,,,0.00,0.000000,,2013-01-31 04:31:00,
2013-01-30 20:41:00,30.0,28.0,-100.00,West,275,0.0,4.0,94,0.00,,,0.00,0.000000,,2013-01-31 04:41:00,
2013-01-30 20:51:00,30.0,28.0,-100.00,West,275,0.0,4.0,94,0.00,,,0.00,0.000000,,2013-01-31 04:51:00,
2013-01-30 21:22:00,30.0,29.0,-100.00,WNW,284,0.0,5.0,95,0.00,,,0.00,0.000000,,2013-01-31 05:22:00,
2013-01-30 21:31:00,30.0,29.0,-100.00,WNW,284,0.0,5.0,95,0.00,,,0.00,0.000000,,2013-01-31 05:31:00,
2013-01-30 21:41:00,30.0,29.0,-100.00,WNW,284,0.0,5.0,95,0.00,,,0.00,0.000000,,2013-01-31 05:41:00,
2013-01-30 21:51:00,30.0,29.0,-100.00,WNW,284,0.0,5.0,95,0.00,,,0.00,0.000000,,2013-01-31 05:51:00,